Time;durP1;ratioP1;P1;durP2;ratioP2;P2;SDS_P1;SDS_P2;PMS_P1;PMS_P2;Temp;Humidity;BMP_temperature;BMP_pressure;BME280_temperature;BME280_humidity;BME280_pressure;Samples;Min_cycle;Max_cycle;Signal;HPM_P1;HPM_P2
2022/05/19 00:02:07;;;;;;;25.45;19.85;;;17.40;99.90;;;;;;5025773;28;20260;-68
2022/05/19 00:04:34;;;;;;;24.95;21.02;;;17.40;99.90;;;;;;5046658;28;20057;-68
2022/05/19 00:07:00;;;;;;;24.25;20.75;;;17.40;99.90;;;;;;5026157;28;20049;-68
2022/05/19 00:09:26;;;;;;;28.33;20.98;;;17.40;99.90;;;;;;5046281;28;20072;-68
2022/05/19 00:11:53;;;;;;;24.90;19.55;;;17.40;99.90;;;;;;5041127;28;20069;-68
2022/05/19 00:14:19;;;;;;;26.02;20.27;;;17.40;99.90;;;;;;5027046;28;20087;-68
2022/05/19 00:16:45;;;;;;;22.80;20.35;;;17.30;99.90;;;;;;5049616;28;20080;-68
2022/05/19 00:19:11;;;;;;;23.75;20.23;;;17.30;99.90;;;;;;5022573;28;20644;-68
2022/05/19 00:21:38;;;;;;;22.65;20.23;;;17.30;99.90;;;;;;5044558;28;20032;-68
2022/05/19 00:24:04;;;;;;;25.65;20.55;;;17.30;99.90;;;;;;5044564;28;20424;-68
2022/05/19 00:26:30;;;;;;;21.98;18.77;;;17.30;99.90;;;;;;5026948;28;20124;-68
2022/05/19 00:28:56;;;;;;;21.33;18.17;;;17.20;99.90;;;;;;5038359;28;20354;-68
2022/05/19 00:31:22;;;;;;;24.00;19.05;;;17.20;99.90;;;;;;5023694;28;20539;-68
2022/05/19 00:33:47;;;;;;;24.15;18.25;;;17.10;99.90;;;;;;5038844;28;20049;-68
2022/05/19 00:36:16;;;;;;;22.42;18.13;;;17.10;99.90;;;;;;5043130;28;20045;-68
2022/05/19 00:38:42;;;;;;;20.88;18.23;;;17.10;99.90;;;;;;5021064;28;20052;-67
2022/05/19 00:41:10;;;;;;;22.52;18.25;;;17.00;99.90;;;;;;5022332;28;20374;-67
2022/05/19 00:43:40;;;;;;;24.00;19.30;;;17.00;99.90;;;;;;5026300;28;20535;-67
2022/05/19 00:46:21;;;;;;;20.55;18.05;;;17.00;99.90;;;;;;5045313;28;20085;-68
2022/05/19 00:48:54;;;;;;;21.85;17.85;;;16.90;99.90;;;;;;5042215;28;20048;-68
2022/05/19 00:51:43;;;;;;;21.77;18.35;;;16.90;99.90;;;;;;5043982;28;20037;-68
2022/05/19 00:54:15;;;;;;;22.85;18.67;;;16.80;99.90;;;;;;5004384;28;20089;-68
2022/05/19 00:57:01;;;;;;;23.45;18.77;;;16.80;99.90;;;;;;5045288;28;20136;-68
2022/05/19 00:59:36;;;;;;;24.88;19.83;;;16.70;99.90;;;;;;5039327;28;20045;-68
2022/05/19 01:02:06;;;;;;;26.77;19.88;;;16.70;99.90;;;;;;5023364;28;20491;-68
2022/05/19 01:04:39;;;;;;;22.52;20.15;;;16.60;99.90;;;;;;5043037;28;20057;-68
2022/05/19 01:07:10;;;;;;;22.25;19.52;;;16.60;99.90;;;;;;5020901;28;20466;-68
2022/05/19 01:09:37;;;;;;;26.45;20.83;;;16.60;99.90;;;;;;5041170;28;20064;-68
2022/05/19 01:12:06;;;;;;;24.70;21.40;;;16.50;99.90;;;;;;5020599;28;20052;-68
2022/05/19 01:14:33;;;;;;;26.85;21.52;;;16.50;99.90;;;;;;5027860;28;20056;-68
2022/05/19 01:17:00;;;;;;;25.80;22.10;;;16.50;99.90;;;;;;5022107;28;20735;-68
2022/05/19 01:19:32;;;;;;;26.17;21.92;;;16.40;99.90;;;;;;5044385;28;20124;-68
2022/05/19 01:22:10;;;;;;;25.55;22.15;;;16.40;99.90;;;;;;5040001;28;20112;-68
2022/05/19 01:24:46;;;;;;;28.55;23.05;;;16.40;99.90;;;;;;5037381;28;20115;-68
2022/05/19 01:27:12;;;;;;;26.38;22.02;;;16.40;99.90;;;;;;5037821;28;20033;-68
2022/05/19 01:29:37;;;;;;;25.75;22.33;;;16.30;99.90;;;;;;5023480;28;20149;-68
2022/05/19 01:32:03;;;;;;;24.60;21.95;;;16.30;99.90;;;;;;5042878;28;20037;-68
2022/05/19 01:34:33;;;;;;;28.38;22.08;;;16.30;99.90;;;;;;5026344;28;20071;-68
2022/05/19 01:36:59;;;;;;;28.13;23.13;;;16.20;99.90;;;;;;5041378;28;20048;-68
2022/05/19 01:39:28;;;;;;;30.50;24.73;;;16.20;99.90;;;;;;5042631;28;20424;-68
2022/05/19 01:42:13;;;;;;;26.73;24.02;;;16.10;99.90;;;;;;5038380;28;20092;-68
2022/05/19 01:44:46;;;;;;;28.25;23.88;;;16.10;99.90;;;;;;5028543;28;20056;-68
2022/05/19 01:47:41;;;;;;;28.47;24.73;;;16.10;99.90;;;;;;5046706;28;20048;-68
2022/05/19 01:50:11;;;;;;;30.17;24.77;;;16.10;99.90;;;;;;5039803;28;20143;-68
2022/05/19 01:52:59;;;;;;;32.05;25.08;;;16.00;99.90;;;;;;5042901;28;20088;-68
2022/05/19 01:55:46;;;;;;;29.48;25.70;;;16.00;99.90;;;;;;5021034;28;20073;-68
2022/05/19 01:58:34;;;;;;;32.42;25.83;;;16.00;99.90;;;;;;5036633;28;20442;-68
2022/05/19 02:01:04;;;;;;;32.45;28.02;;;15.90;99.90;;;;;;5043317;28;20113;-68
2022/05/19 02:03:56;;;;;;;33.10;29.50;;;15.90;99.90;;;;;;5026576;28;20037;-68
2022/05/19 02:06:32;;;;;;;34.70;28.67;;;15.90;99.90;;;;;;5046326;28;20065;-68
2022/05/19 02:09:02;;;;;;;41.65;30.85;;;15.80;99.90;;;;;;5045616;28;20071;-68
2022/05/19 02:11:40;;;;;;;36.65;32.65;;;15.80;99.90;;;;;;5043708;28;20068;-68
2022/05/19 02:14:14;;;;;;;38.30;31.77;;;15.80;99.90;;;;;;5045492;28;20469;-68
2022/05/19 02:16:42;;;;;;;40.58;33.67;;;15.80;99.90;;;;;;5046026;28;20041;-68
2022/05/19 02:19:10;;;;;;;38.03;33.97;;;15.80;99.90;;;;;;5043158;28;20041;-68
2022/05/19 02:21:36;;;;;;;40.00;34.03;;;15.80;99.90;;;;;;5044822;28;20097;-68
2022/05/19 02:24:03;;;;;;;41.13;34.78;;;15.70;99.90;;;;;;5031222;28;20048;-68
2022/05/19 02:26:33;;;;;;;42.42;35.13;;;15.80;99.90;;;;;;5027195;28;20079;-66
2022/05/19 02:29:06;;;;;;;39.60;33.60;;;15.80;99.90;;;;;;5046143;28;20040;-66
2022/05/19 02:31:32;;;;;;;42.45;37.00;;;15.70;99.90;;;;;;5045117;28;20048;-67
2022/05/19 02:33:58;;;;;;;46.05;37.38;;;15.70;99.90;;;;;;5046121;28;20103;-67
2022/05/19 02:36:23;;;;;;;45.53;39.88;;;15.70;99.90;;;;;;5046960;28;20036;-67
2022/05/19 02:38:49;;;;;;;52.55;40.67;;;15.70;99.90;;;;;;5047000;28;20349;-67
2022/05/19 02:41:15;;;;;;;48.17;39.30;;;15.80;99.90;;;;;;5026684;28;20397;-67
2022/05/19 02:43:41;;;;;;;47.15;41.28;;;15.70;99.90;;;;;;5041919;28;20037;-67
2022/05/19 02:46:06;;;;;;;48.17;42.55;;;15.70;99.90;;;;;;5045534;28;20041;-67
2022/05/19 02:48:33;;;;;;;51.38;41.72;;;15.70;99.90;;;;;;5041469;28;20124;-67
2022/05/19 02:51:00;;;;;;;50.72;42.97;;;15.70;99.90;;;;;;5045710;28;20469;-67
2022/05/19 02:53:26;;;;;;;53.10;43.05;;;15.60;99.90;;;;;;5049319;28;20128;-67
2022/05/19 02:55:52;;;;;;;50.10;44.40;;;15.70;99.90;;;;;;5043508;28;20094;-67
2022/05/19 02:58:18;;;;;;;53.30;47.28;;;15.60;99.90;;;;;;5043329;28;20036;-67
2022/05/19 03:00:48;;;;;;;57.33;46.38;;;15.60;99.90;;;;;;5022464;28;20137;-67
2022/05/19 03:03:14;;;;;;;54.92;48.42;;;15.60;99.90;;;;;;5033200;28;20125;-67
2022/05/19 03:05:40;;;;;;;55.83;47.08;;;15.70;99.90;;;;;;5041773;28;20042;-67
2022/05/19 03:08:08;;;;;;;54.20;48.42;;;15.60;99.90;;;;;;5037963;28;20047;-67
2022/05/19 03:10:36;;;;;;;53.67;47.80;;;15.60;99.90;;;;;;5042334;28;20516;-67
2022/05/19 03:13:03;;;;;;;56.75;48.63;;;15.70;99.90;;;;;;5042594;28;20045;-67
2022/05/19 03:15:29;;;;;;;54.55;48.55;;;15.60;99.90;;;;;;5026841;28;20328;-67
2022/05/19 03:17:55;;;;;;;55.58;48.38;;;15.60;99.90;;;;;;5025198;28;20049;-67
2022/05/19 03:20:22;;;;;;;58.03;48.05;;;15.60;99.90;;;;;;5002350;28;20045;-67
2022/05/19 03:22:47;;;;;;;59.03;49.95;;;15.70;99.90;;;;;;5015098;28;20078;-67
2022/05/19 03:25:14;;;;;;;58.85;49.83;;;15.70;99.90;;;;;;5042631;28;20065;-67
2022/05/19 03:27:40;;;;;;;53.35;47.55;;;15.70;99.90;;;;;;5046110;28;20037;-67
2022/05/19 03:30:09;;;;;;;54.30;47.50;;;15.80;99.90;;;;;;5018214;28;20041;-67
2022/05/19 03:32:35;;;;;;;56.85;49.45;;;15.80;99.90;;;;;;5045785;28;20045;-67
2022/05/19 03:35:00;;;;;;;58.25;50.67;;;15.80;99.90;;;;;;5025380;28;20052;-67
2022/05/19 03:37:26;;;;;;;57.58;50.97;;;15.90;99.90;;;;;;5028714;28;20082;-67
2022/05/19 03:39:52;;;;;;;62.50;53.40;;;15.80;99.90;;;;;;5025303;28;20049;-67
2022/05/19 03:42:17;;;;;;;56.80;50.20;;;15.80;99.90;;;;;;5048147;28;20527;-67
2022/05/19 03:44:43;;;;;;;58.08;50.88;;;15.80;99.90;;;;;;5026976;28;20041;-67
2022/05/19 03:47:09;;;;;;;62.63;52.72;;;15.90;99.90;;;;;;5041841;28;20077;-67
2022/05/19 03:49:35;;;;;;;60.53;53.47;;;15.90;99.90;;;;;;5041337;28;20041;-67
2022/05/19 03:52:01;;;;;;;59.53;52.42;;;15.90;99.90;;;;;;5044767;28;20033;-67
2022/05/19 03:54:27;;;;;;;58.22;51.95;;;15.80;99.90;;;;;;5040708;28;20045;-67
2022/05/19 03:56:53;;;;;;;58.22;51.80;;;15.80;99.90;;;;;;5028929;28;20052;-67
2022/05/19 03:59:19;;;;;;;60.03;52.65;;;15.80;99.90;;;;;;5042552;28;20037;-67
2022/05/19 04:01:45;;;;;;;65.78;54.15;;;15.80;99.90;;;;;;5026089;28;20038;-67
2022/05/19 04:04:13;;;;;;;62.50;53.97;;;15.90;99.90;;;;;;5022529;28;20646;-67
2022/05/19 04:06:39;;;;;;;64.95;55.85;;;15.80;99.90;;;;;;5040773;28;20382;-67
2022/05/19 04:09:05;;;;;;;59.90;53.00;;;15.80;99.90;;;;;;5046511;28;20038;-66
2022/05/19 04:11:32;;;;;;;63.95;54.65;;;15.80;99.90;;;;;;5043413;28;20044;-66
2022/05/19 04:13:58;;;;;;;61.55;55.03;;;15.80;99.90;;;;;;5046525;28;20039;-66
2022/05/19 04:16:24;;;;;;;59.30;53.05;;;15.80;99.90;;;;;;5043925;28;20037;-67
2022/05/19 04:18:50;;;;;;;61.70;55.17;;;15.80;99.90;;;;;;5045480;28;20119;-67
2022/05/19 04:21:16;;;;;;;62.60;53.97;;;15.90;99.90;;;;;;5040727;28;20029;-67
2022/05/19 04:23:42;;;;;;;59.67;53.17;;;15.90;99.90;;;;;;5045462;28;20358;-66
2022/05/19 04:26:07;;;;;;;63.40;53.75;;;15.90;99.90;;;;;;5040773;28;20095;-66
2022/05/19 04:28:33;;;;;;;70.68;56.63;;;15.90;99.90;;;;;;5043037;28;20488;-66
2022/05/19 04:31:00;;;;;;;65.05;55.17;;;16.00;99.90;;;;;;5038987;28;20049;-66
2022/05/19 04:33:26;;;;;;;58.63;51.95;;;16.00;99.90;;;;;;5042542;28;20123;-67
2022/05/19 04:35:52;;;;;;;58.15;50.40;;;16.10;99.90;;;;;;5046767;28;20032;-66
2022/05/19 04:38:18;;;;;;;58.75;52.42;;;16.20;99.90;;;;;;5041748;28;20068;-66
2022/05/19 04:40:49;;;;;;;55.85;49.80;;;16.20;99.90;;;;;;5038650;28;20041;-67
2022/05/19 04:43:21;;;;;;;59.08;51.05;;;16.30;99.90;;;;;;5040126;28;20059;-67
2022/05/19 04:45:49;;;;;;;54.30;48.55;;;16.40;99.90;;;;;;5041396;28;20056;-68
2022/05/19 04:48:15;;;;;;;57.10;50.95;;;16.40;99.90;;;;;;5037994;28;20045;-67
2022/05/19 04:50:42;;;;;;;54.35;48.72;;;16.50;99.90;;;;;;5038830;28;20370;-67
2022/05/19 04:53:07;;;;;;;54.05;48.25;;;16.50;99.90;;;;;;5019720;28;20869;-67
2022/05/19 04:55:36;;;;;;;52.17;46.67;;;16.60;99.90;;;;;;5043266;28;20048;-67
2022/05/19 04:58:02;;;;;;;50.10;44.85;;;16.70;99.90;;;;;;5040867;28;20061;-67
2022/05/19 05:00:28;;;;;;;50.80;45.35;;;16.70;99.90;;;;;;5047800;28;20089;-67
2022/05/19 05:02:53;;;;;;;49.63;44.47;;;16.70;99.90;;;;;;5043972;28;20662;-67
2022/05/19 05:05:19;;;;;;;48.65;43.35;;;16.80;99.90;;;;;;5031255;28;20052;-67
2022/05/19 05:07:45;;;;;;;48.15;42.90;;;16.80;99.90;;;;;;5038321;28;20041;-67
2022/05/19 05:10:11;;;;;;;48.90;43.92;;;17.00;99.90;;;;;;5044253;28;20033;-67
2022/05/19 05:12:37;;;;;;;48.33;43.22;;;17.10;99.90;;;;;;5023879;28;20949;-67
2022/05/19 05:15:03;;;;;;;49.15;43.92;;;17.20;99.90;;;;;;5045274;28;20055;-67
2022/05/19 05:17:29;;;;;;;46.72;42.08;;;17.30;99.90;;;;;;5028637;28;20067;-67
2022/05/19 05:19:55;;;;;;;44.22;39.63;;;17.50;99.90;;;;;;5044605;28;20381;-67
2022/05/19 05:22:21;;;;;;;44.42;39.80;;;17.60;99.90;;;;;;5041887;28;20036;-67
2022/05/19 05:24:46;;;;;;;41.53;37.20;;;17.70;99.90;;;;;;5023874;28;20053;-67
2022/05/19 05:27:12;;;;;;;39.42;35.65;;;17.80;99.90;;;;;;5010811;28;20057;-67
2022/05/19 05:29:38;;;;;;;39.85;35.88;;;17.90;99.90;;;;;;5046273;28;20049;-67
2022/05/19 05:32:04;;;;;;;38.50;34.50;;;18.10;99.90;;;;;;5025329;28;20041;-67
2022/05/19 05:34:30;;;;;;;36.78;33.05;;;18.20;99.90;;;;;;5036023;28;20037;-67
2022/05/19 05:36:56;;;;;;;35.40;31.75;;;18.40;99.90;;;;;;5041965;28;20118;-67
2022/05/19 05:39:21;;;;;;;35.45;31.80;;;18.60;99.90;;;;;;5047121;28;20487;-67
2022/05/19 05:41:47;;;;;;;31.17;27.58;;;18.80;99.90;;;;;;5038347;28;20045;-67
2022/05/19 05:44:13;;;;;;;29.13;26.15;;;19.00;99.90;;;;;;5033783;28;20033;-67
2022/05/19 05:46:40;;;;;;;26.65;24.13;;;19.30;99.90;;;;;;5035817;28;20402;-67
2022/05/19 05:49:06;;;;;;;24.90;22.38;;;19.50;99.90;;;;;;5044473;28;20032;-67
2022/05/19 05:51:32;;;;;;;24.15;21.65;;;19.80;99.90;;;;;;5048385;28;20041;-67
2022/05/19 05:53:57;;;;;;;21.88;19.58;;;20.00;99.90;;;;;;5039763;28;20045;-67
2022/05/19 05:56:23;;;;;;;20.83;18.50;;;20.20;99.90;;;;;;5044534;28;20059;-67
2022/05/19 05:58:50;;;;;;;20.05;17.95;;;20.30;99.90;;;;;;5040545;28;20373;-67
2022/05/19 06:01:18;;;;;;;19.45;17.50;;;20.40;99.90;;;;;;5042906;28;20029;-67
2022/05/19 06:03:45;;;;;;;29.52;26.50;;;20.40;99.90;;;;;;5033907;28;20079;-67
2022/05/19 06:06:11;;;;;;;16.65;14.77;;;20.40;99.90;;;;;;5032961;28;20042;-67
2022/05/19 06:08:37;;;;;;;16.10;14.52;;;20.30;99.90;;;;;;5041747;28;20505;-67
2022/05/19 06:11:05;;;;;;;16.35;14.65;;;20.40;99.90;;;;;;5042555;28;20041;-67
2022/05/19 06:13:30;;;;;;;16.30;14.73;;;20.40;99.90;;;;;;5022526;28;20053;-67
2022/05/19 06:15:57;;;;;;;15.00;13.32;;;20.50;99.90;;;;;;5043085;28;20091;-67
2022/05/19 06:18:24;;;;;;;13.32;11.27;;;20.50;99.90;;;;;;5042611;28;20433;-67
2022/05/19 06:20:50;;;;;;;13.55;10.55;;;20.50;99.90;;;;;;5043354;28;20495;-67
2022/05/19 06:23:17;;;;;;;11.77;10.38;;;20.50;99.90;;;;;;5044976;28;20116;-67
2022/05/19 06:25:44;;;;;;;10.95;9.55;;;20.60;99.90;;;;;;5037886;28;20083;-67
2022/05/19 06:28:10;;;;;;;11.00;9.85;;;20.70;99.90;;;;;;5044509;28;20520;-67
2022/05/19 06:30:36;;;;;;;12.02;9.57;;;20.90;99.90;;;;;;5035839;28;20057;-67
2022/05/19 06:33:02;;;;;;;11.90;10.38;;;21.00;99.90;;;;;;5041127;28;20041;-67
2022/05/19 06:35:30;;;;;;;12.07;10.48;;;21.30;99.90;;;;;;5046525;28;20043;-67
2022/05/19 06:37:56;;;;;;;12.65;11.30;;;21.40;99.90;;;;;;5040106;28;20120;-67
2022/05/19 06:40:24;;;;;;;11.55;8.50;;;21.60;99.90;;;;;;5017798;28;20517;-67
2022/05/19 06:42:50;;;;;;;149.32;134.57;;;21.60;99.90;;;;;;5043183;28;20056;-67
2022/05/19 06:45:18;;;;;;;16.02;14.43;;;21.50;99.90;;;;;;5044764;28;20052;-67
2022/05/19 06:47:44;;;;;;;12.73;11.43;;;21.40;99.90;;;;;;5040538;28;20033;-67
2022/05/19 06:50:11;;;;;;;12.13;10.50;;;21.40;99.90;;;;;;5043774;28;20460;-68
2022/05/19 06:52:49;;;;;;;12.32;10.63;;;21.30;99.90;;;;;;5043835;28;20048;-68
2022/05/19 06:55:16;;;;;;;27.77;25.08;;;21.20;99.90;;;;;;5050255;28;20531;-68
2022/05/19 06:57:43;;;;;;;15.73;13.63;;;21.10;99.90;;;;;;5044052;28;20047;-68
2022/05/19 07:00:16;;;;;;;14.05;12.13;;;21.00;99.90;;;;;;5045104;28;20037;-68
2022/05/19 07:02:46;;;;;;;12.73;8.90;;;20.90;99.90;;;;;;5032870;28;20041;-68
2022/05/19 07:05:12;;;;;;;10.55;9.23;;;20.80;99.90;;;;;;5023490;28;20049;-68
2022/05/19 07:07:38;;;;;;;10.98;8.35;;;20.70;99.90;;;;;;5042300;28;20044;-67
2022/05/19 07:10:05;;;;;;;10.38;8.05;;;20.60;99.90;;;;;;5026690;28;20101;-67
2022/05/19 07:12:31;;;;;;;11.40;8.00;;;20.60;99.90;;;;;;5045264;28;20122;-67
2022/05/19 07:14:56;;;;;;;9.23;7.20;;;20.60;99.90;;;;;;5044585;28;20091;-67
2022/05/19 07:17:22;;;;;;;10.77;7.63;;;20.60;99.90;;;;;;5049384;28;20045;-67
2022/05/19 07:22:33;;;;;;;10.65;7.68;;;20.60;99.90;;;;;;5039076;28;20049;-67
2022/05/19 07:25:01;;;;;;;15.07;7.47;;;20.50;99.90;;;;;;5046484;28;20045;-67
2022/05/19 07:27:27;;;;;;;14.48;9.00;;;20.50;99.90;;;;;;5046841;28;20128;-68
2022/05/19 07:29:53;;;;;;;11.18;9.25;;;20.40;99.90;;;;;;5041000;28;20049;-68
2022/05/19 07:32:22;;;;;;;11.30;9.43;;;20.40;99.90;;;;;;5035472;28;20097;-68
2022/05/19 07:34:48;;;;;;;12.95;11.63;;;20.30;99.90;;;;;;5038494;28;20041;-68
2022/05/19 07:37:13;;;;;;;16.60;12.45;;;20.20;99.90;;;;;;5049307;28;20459;-68
2022/05/19 07:39:39;;;;;;;15.52;13.77;;;20.00;99.90;;;;;;5043705;28;20049;-67
2022/05/19 07:42:05;;;;;;;17.65;15.82;;;19.90;99.90;;;;;;5042069;28;20048;-67
2022/05/19 07:44:32;;;;;;;20.20;18.02;;;19.80;99.90;;;;;;5026769;28;20064;-67
2022/05/19 07:46:57;;;;;;;23.77;17.70;;;19.70;99.90;;;;;;5022505;28;20077;-67
2022/05/19 07:49:23;;;;;;;20.23;17.25;;;19.70;99.90;;;;;;5043368;28;20475;-67
2022/05/19 07:51:49;;;;;;;27.25;23.08;;;19.60;99.90;;;;;;5042416;28;20037;-67
2022/05/19 07:54:21;;;;;;;19.85;17.70;;;19.60;99.90;;;;;;5041803;28;20044;-67
2022/05/19 07:56:47;;;;;;;18.75;16.75;;;19.60;99.90;;;;;;5049938;28;20033;-67
2022/05/19 07:59:15;;;;;;;19.70;17.60;;;19.60;99.90;;;;;;5047053;28;20072;-67
2022/05/19 08:01:42;;;;;;;18.08;16.17;;;19.60;99.90;;;;;;5026049;28;20124;-67
2022/05/19 08:04:09;;;;;;;20.13;17.55;;;19.60;99.90;;;;;;5028193;28;20114;-67
2022/05/19 08:06:36;;;;;;;19.73;16.92;;;19.50;99.90;;;;;;5026417;28;20382;-67
2022/05/19 08:10:20;;;;;;;17.95;16.13;;;19.40;99.90;;;;;;5041888;28;20048;-67
2022/05/19 08:11:48;;;;;;;19.15;17.10;;;19.40;99.90;;;;;;5024975;28;20073;-67
2022/05/19 08:16:58;;;;;;;18.50;16.23;;;19.20;99.90;;;;;;5024496;28;20089;-67
2022/05/19 08:19:24;;;;;;;19.60;17.60;;;19.20;99.90;;;;;;5043054;28;20459;-67
2022/05/19 08:21:50;;;;;;;19.67;17.58;;;19.20;99.90;;;;;;5039044;28;20052;-67
2022/05/19 08:24:16;;;;;;;20.42;18.23;;;19.20;99.90;;;;;;5035218;28;20140;-67
2022/05/19 08:26:42;;;;;;;19.17;17.10;;;19.20;99.90;;;;;;5041156;28;20065;-67
2022/05/19 08:29:08;;;;;;;20.17;18.00;;;19.30;99.90;;;;;;5035507;28;20555;-67
2022/05/19 08:31:34;;;;;;;20.20;18.10;;;19.40;99.90;;;;;;5040208;28;20041;-67
2022/05/19 08:34:03;;;;;;;21.15;18.95;;;19.50;99.90;;;;;;5036712;28;20110;-67
2022/05/19 08:36:29;;;;;;;20.98;18.50;;;19.60;99.90;;;;;;5041524;28;20042;-67
2022/05/19 08:38:56;;;;;;;20.35;18.25;;;19.60;99.90;;;;;;5043118;28;20049;-67
2022/05/19 08:41:27;;;;;;;22.17;18.33;;;19.70;99.90;;;;;;5043834;28;20373;-67
2022/05/19 08:44:02;;;;;;;19.60;17.15;;;19.80;99.90;;;;;;5043528;28;20153;-67
2022/05/19 08:46:35;;;;;;;19.60;17.63;;;19.90;99.90;;;;;;5048969;28;20096;-67
2022/05/19 08:49:12;;;;;;;20.75;17.40;;;20.10;99.90;;;;;;5041946;28;20044;-67
2022/05/19 08:51:49;;;;;;;18.40;16.50;;;20.20;99.90;;;;;;5038633;28;20042;-67
2022/05/19 08:54:20;;;;;;;18.92;17.02;;;20.30;99.90;;;;;;5024508;28;20049;-67
2022/05/19 08:57:01;;;;;;;17.20;15.15;;;20.30;99.90;;;;;;5042580;28;20037;-67
2022/05/19 08:59:59;;;;;;;19.10;17.13;;;20.40;99.90;;;;;;5040689;28;20075;-68
2022/05/19 09:02:40;;;;;;;17.75;15.75;;;20.60;99.90;;;;;;4992539;28;20044;-68
2022/05/19 09:05:24;;;;;;;74.50;66.82;;;20.70;99.90;;;;;;5038899;28;20040;-68
2022/05/19 09:07:58;;;;;;;17.73;15.88;;;20.90;99.90;;;;;;5024633;28;20550;-68
2022/05/19 09:10:36;;;;;;;16.98;14.82;;;21.10;99.90;;;;;;5039002;28;20059;-68
2022/05/19 09:13:11;;;;;;;15.68;14.02;;;21.30;99.90;;;;;;5025778;28;20095;-68
2022/05/19 09:15:38;;;;;;;15.30;13.85;;;21.50;99.90;;;;;;5037239;28;20103;-68
2022/05/19 09:18:05;;;;;;;18.45;14.52;;;21.70;99.90;;;;;;5036886;28;20382;-67
2022/05/19 09:20:41;;;;;;;17.85;14.93;;;21.90;99.90;;;;;;5032498;28;20096;-67
2022/05/19 09:23:07;;;;;;;16.35;14.05;;;22.00;99.90;;;;;;5037759;28;20357;-67
2022/05/19 09:25:36;;;;;;;17.02;15.45;;;22.10;99.90;;;;;;5035539;28;20036;-67
2022/05/19 09:28:02;;;;;;;16.58;14.07;;;22.30;99.90;;;;;;5043806;28;20392;-67
2022/05/19 09:30:40;;;;;;;15.52;14.02;;;22.40;99.90;;;;;;5038579;28;20037;-67
2022/05/19 09:33:16;;;;;;;15.50;13.75;;;22.50;99.90;;;;;;5044491;28;20076;-67
2022/05/19 09:35:48;;;;;;;15.35;13.75;;;22.70;99.90;;;;;;5035079;28;20052;-67
2022/05/19 09:38:31;;;;;;;15.65;13.05;;;22.80;99.90;;;;;;5023747;28;20045;-67
2022/05/19 09:41:08;;;;;;;15.70;13.30;;;23.20;99.90;;;;;;5044353;28;20733;-67
2022/05/19 09:43:37;;;;;;;15.50;11.30;;;23.50;99.90;;;;;;5040365;28;20079;-67
2022/05/19 09:46:16;;;;;;;12.50;11.20;;;23.60;99.90;;;;;;5040770;28;20133;-68
2022/05/19 09:48:48;;;;;;;12.90;11.35;;;23.90;99.90;;;;;;5039484;28;20033;-68
2022/05/19 09:51:17;;;;;;;13.40;12.07;;;24.20;99.90;;;;;;5043245;28;20041;-68
2022/05/19 09:53:57;;;;;;;10.73;9.63;;;24.50;99.90;;;;;;5040361;28;20449;-68
2022/05/19 09:56:33;;;;;;;10.02;7.90;;;24.70;98.10;;;;;;5040982;28;20048;-68
2022/05/19 09:59:15;;;;;;;9.30;8.40;;;24.70;99.10;;;;;;5038500;28;20037;-68
2022/05/19 10:01:45;;;;;;;14.20;8.73;;;24.80;98.40;;;;;;5039699;28;20047;-68
2022/05/19 10:04:39;;;;;;;9.48;7.68;;;24.80;97.30;;;;;;5039061;28;20046;-68
2022/05/19 10:07:18;;;;;;;;;;;24.80;96.10;;;;;;5042105;28;20464;-68
2022/05/19 10:09:47;;;;;;;8.93;7.35;;;24.80;96.60;;;;;;5037271;28;20011;-68
2022/05/19 10:12:19;;;;;;;9.18;8.10;;;24.70;97.40;;;;;;5037078;28;20048;-68
2022/05/19 10:14:50;;;;;;;9.63;8.63;;;24.80;96.60;;;;;;5035550;28;20091;-68
2022/05/19 10:17:38;;;;;;;9.10;8.20;;;24.70;96.00;;;;;;5036697;28;20044;-68
2022/05/19 10:20:20;;;;;;;9.32;8.43;;;24.60;95.60;;;;;;5040382;28;20053;-68
2022/05/19 10:22:53;;;;;;;11.50;9.60;;;24.50;96.30;;;;;;5039233;28;20166;-68
2022/05/19 10:25:56;;;;;;;9.82;8.80;;;24.50;96.40;;;;;;5026408;28;20143;-68
2022/05/19 10:31:33;;;;;;;11.57;9.80;;;24.60;97.90;;;;;;5046215;28;20048;-68
2022/05/19 10:34:24;;;;;;;9.90;8.45;;;24.90;97.10;;;;;;5042530;28;20055;-69
2022/05/19 10:37:11;;;;;;;9.15;8.25;;;25.50;96.90;;;;;;5046477;28;20134;-70
2022/05/19 10:39:50;;;;;;;8.10;7.32;;;26.10;94.50;;;;;;5030126;28;20084;-69
2022/05/19 10:42:34;;;;;;;10.63;8.40;;;26.40;93.70;;;;;;5043083;28;20061;-68
2022/05/19 10:45:00;;;;;;;10.07;9.10;;;26.80;94.00;;;;;;5044969;28;20431;-69
2022/05/19 10:47:54;;;;;;;9.52;7.90;;;27.20;92.20;;;;;;5043035;28;20037;-69
2022/05/19 10:50:30;;;;;;;;;;;27.00;90.90;;;;;;5047833;28;20044;-69
2022/05/19 10:53:20;;;;;;;8.57;7.72;;;26.70;86.00;;;;;;5043346;28;19948;-69
2022/05/19 10:56:07;;;;;;;9.38;8.48;;;26.50;90.70;;;;;;5051616;28;20465;-69
2022/05/19 10:59:05;;;;;;;9.27;8.38;;;26.40;90.70;;;;;;5022988;28;20045;-69
2022/05/19 11:01:43;;;;;;;12.27;11.13;;;26.60;90.50;;;;;;5025364;28;20029;-69
2022/05/19 11:04:21;;;;;;;10.15;9.15;;;26.80;90.60;;;;;;5036695;28;20037;-70
2022/05/19 11:07:06;;;;;;;11.15;10.05;;;27.00;89.60;;;;;;5043251;28;20041;-71
2022/05/19 11:09:50;;;;;;;8.10;7.30;;;27.40;87.30;;;;;;5010973;28;20500;-70
2022/05/19 11:12:25;;;;;;;12.38;7.93;;;27.50;86.10;;;;;;5026147;28;20061;-71
2022/05/19 11:15:16;;;;;;;6.97;6.10;;;27.80;84.90;;;;;;5018326;28;20432;-70
2022/05/19 11:18:08;;;;;;;6.07;5.47;;;28.00;81.60;;;;;;5044658;28;20045;-71
2022/05/19 11:20:41;;;;;;;4.50;3.70;;;28.30;77.90;;;;;;5013523;28;20485;-70
2022/05/19 11:23:22;;;;;;;6.00;3.22;;;28.30;76.20;;;;;;5023712;28;20049;-71
2022/05/19 11:26:27;;;;;;;3.60;3.25;;;28.30;77.40;;;;;;5024304;28;20037;-71
2022/05/19 11:29:11;;;;;;;3.63;2.17;;;28.50;74.40;;;;;;4954933;28;20054;-70
2022/05/19 11:32:06;;;;;;;3.47;2.00;;;28.80;75.60;;;;;;5021839;28;20120;-70
2022/05/19 11:34:37;;;;;;;2.55;1.92;;;29.20;75.20;;;;;;5045025;28;20051;-70
2022/05/19 11:37:14;;;;;;;3.22;2.50;;;29.30;71.50;;;;;;5026713;28;20061;-71
2022/05/19 11:40:25;;;;;;;3.30;2.45;;;29.20;68.50;;;;;;5016298;28;20199;-71
2022/05/19 11:42:54;;;;;;;5.10;2.60;;;29.20;70.70;;;;;;5027766;28;20057;-70
2022/05/19 11:45:32;;;;;;;3.72;2.30;;;29.20;68.40;;;;;;5027840;28;20516;-70
2022/05/19 11:56:48;;;;;;;2.10;1.77;;;29.50;62.00;;;;;;5028840;28;20123;-69
2022/05/19 11:59:15;;;;;;;2.70;1.65;;;29.10;63.10;;;;;;5037544;28;20462;-69
2022/05/19 12:01:49;;;;;;;3.00;2.05;;;28.80;64.50;;;;;;5038805;28;20033;-70
2022/05/19 12:04:27;;;;;;;2.75;1.52;;;28.70;64.50;;;;;;5018656;28;20049;-70
2022/05/19 12:07:22;;;;;;;2.78;1.55;;;28.60;64.60;;;;;;5021503;28;20755;-70
2022/05/19 12:09:50;;;;;;;2.03;1.50;;;28.50;64.00;;;;;;5037507;28;20100;-69
2022/05/19 12:12:24;;;;;;;3.05;1.17;;;28.40;63.40;;;;;;5031497;28;20554;-70
2022/05/19 12:15:43;;;;;;;2.10;1.20;;;28.20;63.10;;;;;;5036647;28;20049;-70
2022/05/19 12:18:31;;;;;;;1.45;1.35;;;28.00;64.20;;;;;;5006472;28;20063;-70
2022/05/19 12:21:00;;;;;;;2.03;1.27;;;27.80;64.20;;;;;;5004184;28;20059;-70
2022/05/19 12:23:33;;;;;;;3.00;1.45;;;27.60;64.30;;;;;;5025246;28;20335;-70
2022/05/19 12:26:05;;;;;;;2.40;1.40;;;27.50;64.70;;;;;;5042630;28;20482;-70
2022/05/19 12:29:12;;;;;;;2.15;1.50;;;27.30;66.00;;;;;;5041852;28;20512;-70
2022/05/19 12:32:06;;;;;;;2.40;1.60;;;27.10;66.40;;;;;;5028448;28;20736;-70
2022/05/19 12:34:37;;;;;;;1.95;1.40;;;27.00;67.60;;;;;;5039792;28;20030;-70
2022/05/19 12:37:10;;;;;;;2.80;1.80;;;26.70;67.30;;;;;;5026174;28;20163;-70
2022/05/19 12:39:47;;;;;;;3.00;1.80;;;26.50;66.80;;;;;;5026140;28;20056;-66
2022/05/19 12:42:35;;;;;;;3.47;2.25;;;26.30;68.40;;;;;;5037676;28;20636;-69
2022/05/19 12:45:18;;;;;;;3.08;1.75;;;26.10;72.10;;;;;;5042580;28;20516;-69
2022/05/19 12:48:10;;;;;;;3.90;2.43;;;25.80;73.60;;;;;;5033393;28;20048;-69
2022/05/19 12:50:41;;;;;;;4.32;2.83;;;25.50;77.50;;;;;;4996657;28;20077;-69
2022/05/19 12:53:28;;;;;;;6.07;2.72;;;25.30;82.00;;;;;;5024329;28;20114;-69
2022/05/19 12:55:57;;;;;;;31.17;28.45;;;25.00;85.30;;;;;;5018511;28;20092;-69
2022/05/19 12:58:42;;;;;;;8.65;6.00;;;24.70;88.80;;;;;;5032739;28;20045;-68
2022/05/19 13:01:20;;;;;;;6.28;3.47;;;24.50;92.90;;;;;;5009783;28;20052;-68
2022/05/19 13:04:02;;;;;;;8.43;3.92;;;24.20;95.20;;;;;;5040786;28;20508;-68
2022/05/19 13:06:30;;;;;;;9.20;4.38;;;23.90;99.00;;;;;;5042815;28;20120;-68
2022/05/19 13:09:00;;;;;;;6.70;4.82;;;23.60;99.90;;;;;;5043484;28;20040;-68
2022/05/19 13:11:33;;;;;;;8.73;4.93;;;23.30;99.90;;;;;;5021377;28;20139;-68
2022/05/19 13:14:20;;;;;;;8.68;4.75;;;23.00;99.90;;;;;;5023830;28;20057;-68